createdAt,value
2022-09-24T00:01:15.302Z,50.32
2022-09-24T00:03:45.524Z,50.11
2022-09-24T00:06:15.708Z,50.52
2022-09-24T00:08:42.441Z,50.26
2022-09-24T00:11:12.042Z,50.48
2022-09-24T00:13:39.710Z,50.57
2022-09-24T00:16:14.397Z,50.18
2022-09-24T00:18:41.985Z,50.50
2022-09-24T00:21:32.672Z,50.74
2022-09-24T00:24:02.302Z,50.37
2022-09-24T00:26:47.839Z,50.48
2022-09-24T00:29:20.611Z,50.51
2022-09-24T00:31:48.391Z,50.38
2022-09-24T00:34:15.105Z,50.48
2022-09-24T00:36:42.119Z,50.16
2022-09-24T00:39:08.903Z,50.24
2022-09-24T00:41:37.915Z,50.75
2022-09-24T00:44:38.800Z,50.51
2022-09-24T00:47:06.101Z,50.29
2022-09-24T00:49:32.924Z,50.39
2022-09-24T00:51:59.673Z,50.40
2022-09-24T00:54:28.795Z,50.37
2022-09-24T00:56:57.112Z,50.16
2022-09-24T00:59:24.255Z,50.20
2022-09-24T01:01:52.130Z,50.34
2022-09-24T01:04:21.299Z,50.38
2022-09-24T01:06:49.247Z,50.17
2022-09-24T01:09:17.191Z,50.47
2022-09-24T01:11:46.970Z,50.30
2022-09-24T01:14:31.433Z,50.50
2022-09-24T01:17:43.008Z,50.48
2022-09-24T01:20:37.362Z,50.39
2022-09-24T01:23:26.013Z,50.53
2022-09-24T01:26:01.817Z,50.51
2022-09-24T01:28:58.875Z,50.69
2022-09-24T01:31:31.158Z,50.52
2022-09-24T01:33:59.672Z,50.63
2022-09-24T01:36:27.216Z,50.54
2022-09-24T01:38:55.739Z,50.65
2022-09-24T01:41:22.561Z,50.67
2022-09-24T01:43:49.478Z,50.78
2022-09-24T01:46:19.855Z,50.49
2022-09-24T01:48:46.711Z,50.52
2022-09-24T01:51:26.892Z,50.47
2022-09-24T01:54:02.684Z,50.54
2022-09-24T01:56:45.986Z,50.43
2022-09-24T01:59:15.864Z,50.44
2022-09-24T02:02:07.507Z,50.79
2022-09-24T02:04:39.176Z,50.49
2022-09-24T02:07:13.393Z,50.83
2022-09-24T02:09:42.628Z,50.58
2022-09-24T02:12:18.540Z,50.82
2022-09-24T02:15:13.465Z,51.17
2022-09-24T02:17:43.803Z,50.57
2022-09-24T02:20:14.119Z,50.72
2022-09-24T02:22:41.123Z,50.82
2022-09-24T02:25:09.676Z,50.68
2022-09-24T02:27:36.427Z,50.73
2022-09-24T02:30:03.160Z,50.82
2022-09-24T02:32:32.496Z,51.10
2022-09-24T02:35:01.992Z,50.84
2022-09-24T02:37:29.222Z,51.25
2022-09-24T02:39:56.074Z,50.93
2022-09-24T02:42:22.989Z,51.29
2022-09-24T02:44:49.951Z,50.81
2022-09-24T02:47:16.558Z,51.13
2022-09-24T02:49:43.251Z,51.00
2022-09-24T02:52:17.381Z,51.09
2022-09-24T02:54:45.383Z,51.27
2022-09-24T02:57:12.047Z,51.23
2022-09-24T02:59:38.745Z,50.96
2022-09-24T03:02:05.762Z,51.25
2022-09-24T03:04:32.637Z,51.33
2022-09-24T03:06:59.515Z,51.18
2022-09-24T03:09:26.299Z,50.99
2022-09-24T03:11:52.948Z,51.37
2022-09-24T03:14:19.671Z,51.09
2022-09-24T03:16:46.351Z,50.95
2022-09-24T03:19:13.079Z,51.39
2022-09-24T03:21:39.716Z,51.32
2022-09-24T03:24:06.797Z,51.19
2022-09-24T03:26:33.494Z,51.38
2022-09-24T03:29:00.237Z,51.25
2022-09-24T03:31:26.982Z,51.27
2022-09-24T03:33:54.530Z,51.19
2022-09-24T03:36:24.514Z,51.33
2022-09-24T03:38:56.355Z,51.14
2022-09-24T03:41:24.811Z,51.10
2022-09-24T03:43:51.443Z,51.29
2022-09-24T03:46:19.306Z,51.00
2022-09-24T03:48:47.432Z,51.19
2022-09-24T03:51:16.651Z,51.09
2022-09-24T03:53:43.358Z,51.32
2022-09-24T03:56:11.902Z,51.35
2022-09-24T03:58:39.372Z,51.04
2022-09-24T04:01:07.185Z,51.01
2022-09-24T04:03:33.938Z,51.29
2022-09-24T04:06:00.578Z,51.10
2022-09-24T04:08:27.399Z,51.48
2022-09-24T04:10:55.462Z,51.22
2022-09-24T04:13:22.520Z,50.92
2022-09-24T04:15:50.430Z,51.50
2022-09-24T04:18:18.599Z,50.99
2022-09-24T04:20:45.621Z,51.13
2022-09-24T04:23:12.682Z,51.08
2022-09-24T04:25:40.683Z,51.13
2022-09-24T04:28:08.461Z,51.28
2022-09-24T04:30:36.220Z,51.37
2022-09-24T04:33:03.128Z,51.24
2022-09-24T04:35:31.775Z,51.21
2022-09-24T04:37:59.643Z,51.48
2022-09-24T04:40:27.239Z,51.37
2022-09-24T04:42:54.251Z,51.48
2022-09-24T04:45:21.857Z,51.49
2022-09-24T04:48:07.520Z,51.47
2022-09-24T04:50:34.437Z,51.50
2022-09-24T04:53:02.410Z,51.42
2022-09-24T04:55:29.126Z,51.18
2022-09-24T04:57:59.374Z,51.56
2022-09-24T05:00:26.172Z,51.52
2022-09-24T05:03:00.987Z,51.58
2022-09-24T05:05:28.229Z,51.23
2022-09-24T05:07:56.941Z,51.60
2022-09-24T05:10:24.958Z,51.18
2022-09-24T05:12:52.219Z,51.53
2022-09-24T05:15:21.920Z,51.69
2022-09-24T05:17:48.820Z,51.56
2022-09-24T05:20:16.894Z,51.83
2022-09-24T05:22:48.250Z,51.93
2022-09-24T05:25:16.333Z,51.71
2022-09-24T05:27:51.175Z,51.76
2022-09-24T05:30:18.982Z,52.18
2022-09-24T05:32:46.342Z,52.18
2022-09-24T05:35:13.775Z,51.93
2022-09-24T05:37:41.118Z,52.09
2022-09-24T05:40:26.921Z,51.86
2022-09-24T05:43:00.443Z,52.39
2022-09-24T05:45:27.585Z,51.89
2022-09-24T05:47:54.587Z,51.97
2022-09-24T05:50:21.512Z,52.22
2022-09-24T05:52:48.247Z,52.06
2022-09-24T05:55:15.043Z,51.98
2022-09-24T05:57:41.779Z,52.52
2022-09-24T06:00:09.209Z,52.59
2022-09-24T06:02:41.903Z,52.94
2022-09-24T06:05:09.295Z,53.42
2022-09-24T06:07:35.910Z,53.29
2022-09-24T06:10:02.676Z,53.94
2022-09-24T06:12:29.325Z,54.71
2022-09-24T06:14:56.310Z,55.21
2022-09-24T06:17:23.703Z,55.54
2022-09-24T06:19:50.529Z,55.44
2022-09-24T06:22:17.203Z,55.17
2022-09-24T06:24:44.049Z,55.41
2022-09-24T06:27:10.754Z,55.13
2022-09-24T06:29:37.516Z,55.37
2022-09-24T06:32:04.780Z,55.59
2022-09-24T06:34:31.507Z,55.77
2022-09-24T06:36:58.191Z,55.77
2022-09-24T06:39:28.753Z,55.88
2022-09-24T06:41:56.390Z,55.80
2022-09-24T06:44:22.989Z,55.75
2022-09-24T06:46:49.748Z,56.21
2022-09-24T06:49:16.428Z,56.14
2022-09-24T06:51:43.180Z,56.32
2022-09-24T06:54:09.882Z,56.00
2022-09-24T06:56:36.605Z,56.11
2022-09-24T06:59:03.317Z,56.18
2022-09-24T07:01:30.056Z,56.38
2022-09-24T07:03:56.794Z,56.53
2022-09-24T07:06:23.584Z,56.33
2022-09-24T07:08:51.717Z,56.66
2022-09-24T07:11:18.502Z,56.37
2022-09-24T07:13:45.188Z,56.37
2022-09-24T07:16:12.025Z,56.67
2022-09-24T07:18:38.812Z,56.49
2022-09-24T07:21:05.688Z,56.47
2022-09-24T07:23:32.362Z,56.32
2022-09-24T07:25:59.058Z,56.48
2022-09-24T07:28:26.133Z,56.61
2022-09-24T07:30:57.713Z,56.34
2022-09-24T07:33:24.595Z,56.60
2022-09-24T07:35:51.374Z,56.55
2022-09-24T07:38:18.141Z,56.35
2022-09-24T07:40:45.017Z,56.42
2022-09-24T07:43:14.212Z,56.11
2022-09-24T07:45:41.834Z,55.95
2022-09-24T07:48:09.809Z,55.79
2022-09-24T07:50:39.538Z,55.67
2022-09-24T07:53:06.619Z,55.88
2022-09-24T07:55:41.084Z,55.92
2022-09-24T07:58:09.239Z,55.46
2022-09-24T08:00:35.978Z,55.42
2022-09-24T08:03:05.699Z,55.23
2022-09-24T08:05:33.262Z,54.99
2022-09-24T08:08:00.277Z,55.02
2022-09-24T08:10:28.514Z,55.38
2022-09-24T08:13:00.705Z,55.30
2022-09-24T08:15:28.019Z,54.81
2022-09-24T08:17:54.739Z,54.74
2022-09-24T08:20:23.424Z,54.63
2022-09-24T08:22:50.060Z,54.85
2022-09-24T08:25:16.772Z,54.75
2022-09-24T08:27:43.474Z,54.70
2022-09-24T08:30:10.842Z,54.33
2022-09-24T08:32:37.550Z,54.65
2022-09-24T08:35:13.620Z,54.57
2022-09-24T08:37:50.974Z,54.18
2022-09-24T08:40:20.694Z,53.78
2022-09-24T08:43:37.437Z,54.31
2022-09-24T08:46:35.817Z,54.08
2022-09-24T08:49:04.344Z,53.95
2022-09-24T08:51:36.655Z,53.98
2022-09-24T08:54:06.999Z,53.88
2022-09-24T08:56:34.512Z,53.56
2022-09-24T08:59:03.372Z,53.10
2022-09-24T09:01:42.068Z,53.63
2022-09-24T09:04:20.875Z,53.14
2022-09-24T09:07:15.468Z,53.44
2022-09-24T09:09:46.664Z,53.20
2022-09-24T09:12:18.484Z,52.81
2022-09-24T09:15:05.443Z,53.04
2022-09-24T09:17:35.084Z,52.51
2022-09-24T09:20:06.636Z,52.51
2022-09-24T09:22:40.452Z,52.54
2022-09-24T09:25:19.824Z,52.41
2022-09-24T09:27:57.821Z,52.04
2022-09-24T09:30:24.718Z,51.81
2022-09-24T09:33:29.695Z,51.80
2022-09-24T09:36:11.404Z,51.58
2022-09-24T09:39:10.060Z,51.69
2022-09-24T09:41:56.839Z,51.67
2022-09-24T09:44:28.575Z,51.21
2022-09-24T09:47:04.049Z,50.93
2022-09-24T09:49:34.854Z,50.98
2022-09-24T09:52:05.447Z,50.79
2022-09-24T09:54:39.553Z,50.58
2022-09-24T09:57:06.860Z,50.18
2022-09-24T09:59:35.609Z,49.63
2022-09-24T10:02:02.544Z,49.61
2022-09-24T10:04:41.646Z,49.83
2022-09-24T10:07:16.690Z,49.54
2022-09-24T10:09:44.951Z,48.64
2022-09-24T10:12:22.099Z,48.94
2022-09-24T10:15:03.054Z,48.70
2022-09-24T10:17:35.215Z,48.14
2022-09-24T10:20:07.186Z,48.48
2022-09-24T10:22:35.181Z,47.94
2022-09-24T10:25:01.930Z,47.41
2022-09-24T10:27:32.996Z,47.65
2022-09-24T10:30:18.772Z,47.75
2022-09-24T10:32:45.989Z,47.31
2022-09-24T10:35:35.897Z,46.39
2022-09-24T10:38:18.856Z,45.88
2022-09-24T10:40:46.589Z,45.97
2022-09-24T10:43:21.600Z,45.96
2022-09-24T10:46:23.269Z,45.98
2022-09-24T10:49:04.378Z,46.14
2022-09-24T10:51:57.295Z,45.99
2022-09-24T10:54:40.963Z,45.92
2022-09-24T10:57:33.517Z,46.48
2022-09-24T11:00:59.385Z,45.98
2022-09-24T11:03:29.123Z,46.03
2022-09-24T11:06:18.358Z,46.08
2022-09-24T11:09:06.692Z,46.28
2022-09-24T11:11:56.227Z,46.26
2022-09-24T11:14:41.588Z,46.39
2022-09-24T11:17:15.897Z,46.39
2022-09-24T11:19:48.698Z,46.46
2022-09-24T11:22:47.844Z,46.43
2022-09-24T11:25:20.251Z,46.70
2022-09-24T11:28:15.052Z,46.42
2022-09-24T11:30:51.539Z,46.26
2022-09-24T11:33:43.462Z,46.07
2022-09-24T11:36:16.278Z,46.13
2022-09-24T11:39:21.505Z,45.83
2022-09-24T11:41:50.583Z,45.92
2022-09-24T11:44:48.034Z,45.72
2022-09-24T11:47:39.790Z,45.83
2022-09-24T11:50:34.085Z,45.88
2022-09-24T11:53:09.348Z,45.46
2022-09-24T11:55:49.448Z,45.23
2022-09-24T11:58:22.047Z,45.37
2022-09-24T12:00:53.974Z,45.18
2022-09-24T12:03:26.355Z,45.23
2022-09-24T12:06:16.335Z,45.43
2022-09-24T12:08:47.285Z,45.05
2022-09-24T12:11:19.024Z,44.33
2022-09-24T12:14:18.430Z,44.05
2022-09-24T12:16:47.863Z,44.14
2022-09-24T12:19:22.733Z,43.79
2022-09-24T12:21:52.762Z,43.65
2022-09-24T12:24:35.424Z,43.22
2022-09-24T12:27:07.542Z,43.24
2022-09-24T12:30:16.798Z,43.19
2022-09-24T12:32:55.976Z,42.66
2022-09-24T12:35:23.317Z,43.03
2022-09-24T12:37:53.830Z,43.14
2022-09-24T12:40:36.097Z,43.43
2022-09-24T12:43:07.708Z,43.64
2022-09-24T12:45:35.645Z,44.12
2022-09-24T12:48:02.688Z,44.04
2022-09-24T12:50:32.453Z,44.44
2022-09-24T12:53:30.244Z,44.32
2022-09-24T12:56:01.042Z,44.55
2022-09-24T12:58:42.230Z,44.61
2022-09-24T13:01:32.409Z,44.78
2022-09-24T13:04:14.874Z,45.35
2022-09-24T13:06:45.075Z,45.68
2022-09-24T13:09:38.696Z,45.73
2022-09-24T13:12:19.939Z,45.73
2022-09-24T13:15:02.683Z,45.76
2022-09-24T13:17:44.819Z,46.10
2022-09-24T13:20:26.033Z,45.90
2022-09-24T13:22:58.575Z,46.55
2022-09-24T13:25:26.568Z,47.44
2022-09-24T13:28:02.986Z,48.71
2022-09-24T13:30:30.262Z,49.54
2022-09-24T13:33:24.280Z,50.43
2022-09-24T13:36:03.308Z,50.64
2022-09-24T13:38:45.385Z,50.81
2022-09-24T13:41:27.464Z,50.87
2022-09-24T13:44:01.592Z,51.28
2022-09-24T13:46:30.048Z,51.80
2022-09-24T13:49:01.594Z,51.62
2022-09-24T13:51:30.301Z,51.74
2022-09-24T13:53:59.985Z,51.85
2022-09-24T13:56:26.848Z,51.83
2022-09-24T13:59:04.970Z,51.84
2022-09-24T14:01:37.101Z,52.02
2022-09-24T14:04:06.440Z,52.01
2022-09-24T14:06:36.448Z,52.08
2022-09-24T14:09:15.175Z,52.08
2022-09-24T14:11:52.528Z,51.87
2022-09-24T14:14:22.252Z,51.62
2022-09-24T14:16:49.058Z,51.70
2022-09-24T14:19:16.384Z,51.46
2022-09-24T14:21:49.897Z,50.94
2022-09-24T14:24:27.378Z,50.79
2022-09-24T14:26:58.504Z,50.53
2022-09-24T14:29:29.175Z,50.25
2022-09-24T14:31:59.630Z,50.42
2022-09-24T14:34:37.906Z,50.84
2022-09-24T14:37:17.385Z,51.01
2022-09-24T14:39:46.731Z,51.00
2022-09-24T14:42:21.148Z,51.36
2022-09-24T14:44:48.992Z,51.89
2022-09-24T14:47:41.975Z,52.06
2022-09-24T14:50:39.533Z,52.10
2022-09-24T14:53:19.495Z,52.25
2022-09-24T14:55:46.614Z,52.36
2022-09-24T14:58:28.543Z,52.54
2022-09-24T15:01:18.535Z,52.63
2022-09-24T15:03:50.195Z,52.61
2022-09-24T15:06:19.505Z,52.54
2022-09-24T15:08:58.157Z,52.36
2022-09-24T15:11:27.920Z,51.84
2022-09-24T15:13:59.731Z,51.96
2022-09-24T15:16:34.274Z,52.07
2022-09-24T15:19:07.223Z,52.24
2022-09-24T15:21:34.618Z,51.71
2022-09-24T15:24:01.697Z,50.73
2022-09-24T15:26:30.443Z,42.99
2022-09-24T15:28:58.424Z,44.61
2022-09-24T15:31:25.878Z,40.80
2022-09-24T15:33:52.862Z,36.83
2022-09-24T15:36:21.168Z,38.66
2022-09-24T15:38:52.354Z,40.60
2022-09-24T15:41:19.902Z,42.81
2022-09-24T15:43:46.578Z,44.08
2022-09-24T15:46:13.336Z,45.02
2022-09-24T15:48:40.177Z,44.66
2022-09-24T15:51:11.775Z,41.70
2022-09-24T15:53:41.119Z,41.37
2022-09-24T15:56:08.109Z,41.11
2022-09-24T15:58:35.113Z,41.97
2022-09-24T16:01:02.065Z,42.68
2022-09-24T16:03:30.475Z,43.70
2022-09-24T16:05:59.133Z,43.77
2022-09-24T16:08:26.794Z,45.08
2022-09-24T16:10:54.032Z,45.59
2022-09-24T16:13:24.156Z,45.97
2022-09-24T16:15:50.982Z,46.00
2022-09-24T16:18:18.027Z,45.78
2022-09-24T16:20:46.281Z,46.28
2022-09-24T16:23:14.889Z,46.26
2022-09-24T16:25:43.249Z,46.56
2022-09-24T16:28:09.938Z,46.76
2022-09-24T16:30:38.746Z,47.50
2022-09-24T16:33:05.739Z,48.35
2022-09-24T16:35:32.442Z,48.75
2022-09-24T16:37:59.195Z,49.24
2022-09-24T16:40:25.948Z,49.39
2022-09-24T16:42:52.724Z,49.86
2022-09-24T16:45:19.703Z,50.05
2022-09-24T16:47:46.488Z,50.23
2022-09-24T16:50:13.116Z,50.59
2022-09-24T16:52:40.309Z,50.73
2022-09-24T16:55:07.705Z,51.03
2022-09-24T16:57:37.212Z,51.46
2022-09-24T17:00:10.139Z,51.35
2022-09-24T17:02:37.880Z,51.60
2022-09-24T17:05:05.417Z,52.23
2022-09-24T17:07:33.439Z,52.46
2022-09-24T17:10:18.350Z,52.64
2022-09-24T17:12:47.063Z,52.83
2022-09-24T17:15:14.834Z,52.66
2022-09-24T17:17:49.172Z,52.70
2022-09-24T17:20:17.187Z,52.69
2022-09-24T17:22:43.841Z,53.04
2022-09-24T17:25:10.901Z,53.34
2022-09-24T17:27:37.603Z,53.14
2022-09-24T17:30:06.171Z,53.29
2022-09-24T17:32:32.965Z,53.54
2022-09-24T17:34:59.787Z,53.48
2022-09-24T17:37:27.499Z,53.37
2022-09-24T17:39:54.246Z,53.71
2022-09-24T17:42:21.039Z,53.78
2022-09-24T17:44:47.773Z,53.88
2022-09-24T17:47:14.412Z,54.27
2022-09-24T17:49:41.236Z,54.23
2022-09-24T17:52:07.934Z,54.74
2022-09-24T17:54:34.855Z,54.77
2022-09-24T17:57:02.124Z,55.17
2022-09-24T17:59:29.092Z,54.97
2022-09-24T18:01:55.862Z,54.92
2022-09-24T18:04:25.698Z,54.89
2022-09-24T18:06:52.611Z,55.05
2022-09-24T18:09:19.946Z,55.00
2022-09-24T18:11:49.073Z,54.78
2022-09-24T18:14:20.271Z,54.67
2022-09-24T18:16:49.455Z,54.69
2022-09-24T18:19:17.491Z,54.83
2022-09-24T18:21:45.000Z,54.78
2022-09-24T18:24:11.796Z,54.45
2022-09-24T18:26:39.927Z,54.35
2022-09-24T18:29:11.626Z,54.46
2022-09-24T18:31:38.727Z,54.55
2022-09-24T18:34:07.547Z,54.37
2022-09-24T18:36:36.701Z,54.39
2022-09-24T18:39:05.633Z,54.09
2022-09-24T18:41:32.881Z,54.26
2022-09-24T18:43:59.960Z,54.03
2022-09-24T18:46:29.066Z,54.25
2022-09-24T18:48:56.891Z,54.03
2022-09-24T18:51:26.155Z,54.31
2022-09-24T18:54:05.035Z,54.28
2022-09-24T18:56:32.066Z,53.98
2022-09-24T18:59:09.188Z,53.90
2022-09-24T19:01:37.745Z,53.88
2022-09-24T19:04:04.829Z,53.90
2022-09-24T19:06:34.251Z,53.80
2022-09-24T19:09:01.174Z,54.07
2022-09-24T19:11:30.630Z,53.88
2022-09-24T19:13:58.578Z,53.71
2022-09-24T19:16:25.770Z,53.95
2022-09-24T19:18:53.365Z,53.99
2022-09-24T19:21:20.994Z,53.51
2022-09-24T19:23:49.429Z,53.70
2022-09-24T19:26:19.346Z,53.65
2022-09-24T19:28:47.042Z,54.05
2022-09-24T19:31:16.583Z,53.80
2022-09-24T19:33:44.216Z,53.91
2022-09-24T19:36:15.709Z,53.69
2022-09-24T19:38:42.524Z,54.07
2022-09-24T19:41:15.232Z,54.06
2022-09-24T19:43:45.560Z,53.84
2022-09-24T19:46:14.658Z,53.68
2022-09-24T19:48:43.745Z,53.64
2022-09-24T19:51:18.512Z,53.84
2022-09-24T19:53:54.351Z,53.51
2022-09-24T19:56:23.437Z,53.64
2022-09-24T19:58:54.111Z,53.97
2022-09-24T20:01:27.991Z,53.72
2022-09-24T20:03:55.735Z,53.80
2022-09-24T20:06:25.153Z,53.55
2022-09-24T20:08:51.948Z,53.43
2022-09-24T20:11:21.314Z,53.86
2022-09-24T20:13:49.049Z,53.81
2022-09-24T20:16:20.389Z,53.48
2022-09-24T20:18:48.305Z,53.39
2022-09-24T20:21:17.239Z,53.58
2022-09-24T20:23:45.313Z,53.80
2022-09-24T20:26:31.700Z,53.38
2022-09-24T20:28:59.100Z,53.42
2022-09-24T20:31:26.001Z,53.25
2022-09-24T20:33:52.819Z,53.28
2022-09-24T20:36:24.119Z,53.56
2022-09-24T20:38:52.023Z,53.68
2022-09-24T20:41:24.667Z,53.63
2022-09-24T20:43:59.115Z,53.39
2022-09-24T20:46:28.641Z,53.52
2022-09-24T20:48:59.959Z,53.32
2022-09-24T20:51:31.845Z,53.55
2022-09-24T20:53:59.245Z,53.31
2022-09-24T20:56:26.901Z,53.33
2022-09-24T20:58:53.909Z,53.35
2022-09-24T21:01:21.491Z,53.48
2022-09-24T21:03:50.311Z,53.69
2022-09-24T21:06:24.614Z,53.60
2022-09-24T21:08:52.335Z,53.31
2022-09-24T21:11:21.313Z,53.79
2022-09-24T21:13:53.146Z,53.73
2022-09-24T21:16:22.573Z,53.35
2022-09-24T21:18:50.374Z,53.60
2022-09-24T21:21:19.637Z,53.69
2022-09-24T21:23:48.431Z,53.81
2022-09-24T21:26:19.014Z,53.81
2022-09-24T21:28:50.875Z,53.45
2022-09-24T21:31:23.756Z,53.35
2022-09-24T21:33:54.738Z,53.54
2022-09-24T21:36:24.301Z,53.39
2022-09-24T21:38:59.579Z,53.82
2022-09-24T21:41:31.467Z,53.79
2022-09-24T21:43:58.487Z,53.81
2022-09-24T21:46:26.957Z,53.84
2022-09-24T21:48:55.535Z,53.72
2022-09-24T21:51:23.035Z,53.92
2022-09-24T21:53:51.353Z,53.54
2022-09-24T21:56:18.992Z,53.82
2022-09-24T21:58:49.734Z,53.87
2022-09-24T22:01:27.756Z,53.48
2022-09-24T22:04:00.037Z,53.48
2022-09-24T22:06:29.174Z,53.75
2022-09-24T22:09:06.475Z,53.61
2022-09-24T22:11:34.568Z,53.61
2022-09-24T22:14:02.451Z,53.95
2022-09-24T22:16:31.003Z,53.82
2022-09-24T22:18:58.473Z,53.53
2022-09-24T22:21:25.306Z,53.78
2022-09-24T22:23:52.036Z,53.78
2022-09-24T22:26:18.859Z,53.48
2022-09-24T22:28:45.616Z,53.81
2022-09-24T22:31:15.092Z,53.48
2022-09-24T22:34:00.242Z,53.31
2022-09-24T22:36:28.192Z,53.62
2022-09-24T22:38:56.875Z,53.63
2022-09-24T22:41:24.412Z,53.42
2022-09-24T22:43:52.153Z,53.60
2022-09-24T22:46:19.833Z,53.38
2022-09-24T22:48:47.662Z,53.12
2022-09-24T22:51:14.719Z,53.11
2022-09-24T22:53:41.857Z,53.06
2022-09-24T22:56:11.615Z,53.32
2022-09-24T22:58:41.256Z,53.31
2022-09-24T23:01:15.979Z,52.97
2022-09-24T23:03:44.152Z,53.13
2022-09-24T23:06:14.346Z,52.95
2022-09-24T23:08:42.739Z,52.86
2022-09-24T23:11:16.871Z,52.75
2022-09-24T23:13:45.270Z,52.82
2022-09-24T23:16:20.803Z,52.74
2022-09-24T23:18:49.075Z,52.77
2022-09-24T23:21:17.591Z,52.62
2022-09-24T23:23:45.037Z,52.39
2022-09-24T23:26:16.580Z,52.76
2022-09-24T23:28:45.016Z,52.50
2022-09-24T23:31:13.612Z,52.53
2022-09-24T23:33:41.673Z,52.72
2022-09-24T23:36:10.895Z,52.53
2022-09-24T23:38:38.049Z,52.53
2022-09-24T23:41:05.440Z,52.17
2022-09-24T23:43:33.241Z,52.63
2022-09-24T23:46:00.222Z,52.61
2022-09-24T23:48:27.489Z,52.20
2022-09-24T23:50:54.761Z,52.07
2022-09-24T23:53:22.024Z,52.48
2022-09-24T23:55:49.535Z,52.46
2022-09-24T23:58:19.951Z,52.00
